QLK1137 YSSY-YSWG
Flight info
| Callsign | QLK1137 |
|---|---|
| Flight time | 0h 44m |
| Altitude | 20000 |
| Route | TESAT V169 EXETA W10 WG |
| Aircraft | DH8D/M-SDE2E3FGRY/H |
Departure
| Time | 2026-04-24 12:19 |
|---|---|
| Airport | Sydney Kingsford Smith International Airport (YSSY) |
Arrival
| Time | 2026-04-24 13:03 |
|---|---|
| Airport | Wagga Wagga Airport (YSWG) |
| Time | Latitude | Longitude | Altitude | Speed | Heading |
|---|---|---|---|---|---|
| 2026-04-24 11:56 | -33.93491 | 151.19078 | 28 ft | 0 kts | 341° |
| 2026-04-24 12:05 | -33.93490 | 151.19078 | 28 ft | 0 kts | 341° |
| 2026-04-24 12:05 | -33.93491 | 151.19078 | 28 ft | 0 kts | 341° |
| 2026-04-24 12:05 | -33.93501 | 151.19081 | 28 ft | 2 kts | 342° |
| 2026-04-24 12:06 | -33.93515 | 151.19087 | 27 ft | 2 kts | 342° |
| 2026-04-24 12:06 | -33.93529 | 151.19093 | 27 ft | 2 kts | 342° |
| 2026-04-24 12:06 | -33.93538 | 151.19096 | 27 ft | 1 kts | 338° |
| 2026-04-24 12:06 | -33.93549 | 151.19109 | 27 ft | 2 kts | 299° |
| 2026-04-24 12:07 | -33.93552 | 151.19125 | 26 ft | 2 kts | 264° |
| 2026-04-24 12:07 | -33.93550 | 151.19135 | 27 ft | 0 kts | 253° |
| 2026-04-24 12:07 | -33.93549 | 151.19141 | 26 ft | 1 kts | 253° |
| 2026-04-24 12:07 | -33.93547 | 151.19150 | 26 ft | 1 kts | 253° |
| 2026-04-24 12:08 | -33.93544 | 151.19159 | 26 ft | 1 kts | 253° |
| 2026-04-24 12:08 | -33.93542 | 151.19168 | 26 ft | 0 kts | 254° |
| 2026-04-24 12:08 | -33.93540 | 151.19173 | 26 ft | 1 kts | 257° |
| 2026-04-24 12:08 | -33.93539 | 151.19177 | 26 ft | 0 kts | 237° |
| 2026-04-24 12:12 | -33.93543 | 151.19168 | 26 ft | 0 kts | 249° |
| 2026-04-24 12:12 | -33.93543 | 151.19167 | 26 ft | 0 kts | 248° |
| 2026-04-24 12:12 | -33.93555 | 151.19128 | 26 ft | 8 kts | 257° |
| 2026-04-24 12:13 | -33.93576 | 151.19026 | 28 ft | 12 kts | 253° |
| 2026-04-24 12:13 | -33.93599 | 151.18912 | 29 ft | 11 kts | 269° |
| 2026-04-24 12:13 | -33.93605 | 151.18780 | 30 ft | 18 kts | 256° |
| 2026-04-24 12:13 | -33.93636 | 151.18643 | 30 ft | 19 kts | 254° |
| 2026-04-24 12:14 | -33.93676 | 151.18475 | 29 ft | 15 kts | 254° |
| 2026-04-24 12:14 | -33.93710 | 151.18330 | 26 ft | 18 kts | 255° |
| 2026-04-24 12:14 | -33.93748 | 151.18188 | 23 ft | 20 kts | 249° |
| 2026-04-24 12:14 | -33.93778 | 151.18045 | 19 ft | 18 kts | 253° |
| 2026-04-24 12:15 | -33.93813 | 151.17897 | 13 ft | 17 kts | 255° |
| 2026-04-24 12:15 | -33.93845 | 151.17758 | 10 ft | 16 kts | 254° |
| 2026-04-24 12:15 | -33.93871 | 151.17650 | 10 ft | 12 kts | 253° |
| 2026-04-24 12:15 | -33.93888 | 151.17578 | 10 ft | 7 kts | 253° |
| 2026-04-24 12:16 | -33.93892 | 151.17558 | 10 ft | 0 kts | 253° |
| 2026-04-24 12:17 | -33.93899 | 151.17531 | 11 ft | 11 kts | 253° |
| 2026-04-24 12:18 | -33.93940 | 151.17427 | 14 ft | 12 kts | 204° |
| 2026-04-24 12:18 | -33.94156 | 151.17473 | 17 ft | 72 kts | 168° |
| 2026-04-24 12:18 | -33.94917 | 151.17673 | 42 ft | 140 kts | 171° |
| 2026-04-24 12:18 | -33.95922 | 151.17854 | 488 ft | 151 kts | 180° |
| 2026-04-24 12:19 | -33.96975 | 151.17836 | 1160 ft | 155 kts | 183° |
| 2026-04-24 12:19 | -33.98106 | 151.17717 | 1670 ft | 168 kts | 182° |
| 2026-04-24 12:19 | -33.99218 | 151.17592 | 2505 ft | 161 kts | 184° |
| 2026-04-24 12:19 | -34.00347 | 151.17413 | 3065 ft | 166 kts | 187° |
| 2026-04-24 12:20 | -34.01459 | 151.17177 | 3719 ft | 163 kts | 187° |
| 2026-04-24 12:20 | -34.02535 | 151.16675 | 4212 ft | 172 kts | 223° |
| 2026-04-24 12:20 | -34.03334 | 151.15602 | 4781 ft | 174 kts | 230° |
| 2026-04-24 12:20 | -34.04127 | 151.14516 | 5349 ft | 179 kts | 229° |
| 2026-04-24 12:21 | -34.05145 | 151.13318 | 5270 ft | 225 kts | 219° |
| 2026-04-24 12:21 | -34.06316 | 151.11928 | 5454 ft | 250 kts | 227° |
| 2026-04-24 12:21 | -34.07494 | 151.10416 | 5269 ft | 244 kts | 226° |
| 2026-04-24 12:21 | -34.08655 | 151.08940 | 5070 ft | 237 kts | 227° |
| 2026-04-24 12:22 | -34.09761 | 151.07526 | 4990 ft | 224 kts | 226° |
| 2026-04-24 12:22 | -34.10819 | 151.06180 | 4997 ft | 230 kts | 227° |
| 2026-04-24 12:22 | -34.11990 | 151.04678 | 4998 ft | 255 kts | 226° |
| 2026-04-24 12:22 | -34.13221 | 151.03136 | 5642 ft | 250 kts | 226° |
| 2026-04-24 12:23 | -34.14347 | 151.01723 | 6830 ft | 227 kts | 226° |
| 2026-04-24 12:23 | -34.15418 | 151.00383 | 7603 ft | 224 kts | 225° |
| 2026-04-24 12:23 | -34.16499 | 150.99033 | 8321 ft | 221 kts | 225° |
| 2026-04-24 12:23 | -34.17474 | 150.97801 | 9417 ft | 194 kts | 224° |
| 2026-04-24 12:24 | -34.18362 | 150.96645 | 10120 ft | 188 kts | 225° |
| 2026-04-24 12:24 | -34.19235 | 150.95494 | 10691 ft | 186 kts | 225° |
| 2026-04-24 12:24 | -34.20101 | 150.94353 | 11217 ft | 187 kts | 225° |
| 2026-04-24 12:24 | -34.21009 | 150.93202 | 11756 ft | 187 kts | 222° |
| 2026-04-24 12:25 | -34.21921 | 150.92114 | 12277 ft | 186 kts | 222° |
| 2026-04-24 12:25 | -34.22832 | 150.91020 | 12774 ft | 185 kts | 222° |
| 2026-04-24 12:25 | -34.23748 | 150.89914 | 13227 ft | 187 kts | 223° |
| 2026-04-24 12:25 | -34.24668 | 150.88796 | 13673 ft | 188 kts | 223° |
| 2026-04-24 12:26 | -34.25600 | 150.87657 | 14104 ft | 190 kts | 223° |
| 2026-04-24 12:26 | -34.26526 | 150.86523 | 14489 ft | 192 kts | 223° |
| 2026-04-24 12:26 | -34.27478 | 150.85355 | 14887 ft | 193 kts | 223° |
| 2026-04-24 12:26 | -34.28410 | 150.84206 | 15273 ft | 194 kts | 223° |
| 2026-04-24 12:27 | -34.29364 | 150.83029 | 15656 ft | 196 kts | 223° |
| 2026-04-24 12:27 | -34.30315 | 150.81854 | 16031 ft | 197 kts | 223° |
| 2026-04-24 12:27 | -34.31280 | 150.80661 | 16410 ft | 198 kts | 223° |
| 2026-04-24 12:27 | -34.32248 | 150.79463 | 16769 ft | 199 kts | 223° |
| 2026-04-24 12:28 | -34.33188 | 150.78241 | 17137 ft | 200 kts | 229° |
| 2026-04-24 12:28 | -34.34026 | 150.76907 | 17480 ft | 201 kts | 231° |
| 2026-04-24 12:28 | -34.34864 | 150.75528 | 17805 ft | 203 kts | 231° |
| 2026-04-24 12:28 | -34.35699 | 150.74155 | 18128 ft | 203 kts | 232° |
| 2026-04-24 12:29 | -34.36546 | 150.72765 | 18447 ft | 205 kts | 231° |
| 2026-04-24 12:29 | -34.37386 | 150.71384 | 18759 ft | 205 kts | 231° |
| 2026-04-24 12:29 | -34.38237 | 150.69987 | 19058 ft | 207 kts | 231° |
| 2026-04-24 12:29 | -34.39089 | 150.68590 | 19369 ft | 207 kts | 231° |
| 2026-04-24 12:30 | -34.39950 | 150.67177 | 19656 ft | 208 kts | 231° |
| 2026-04-24 12:30 | -34.40806 | 150.65771 | 19939 ft | 208 kts | 231° |
| 2026-04-24 12:30 | -34.41679 | 150.64340 | 20219 ft | 209 kts | 231° |
| 2026-04-24 12:30 | -34.42545 | 150.62918 | 20508 ft | 209 kts | 230° |
| 2026-04-24 12:31 | -34.43410 | 150.61497 | 20797 ft | 209 kts | 230° |
| 2026-04-24 12:31 | -34.44268 | 150.60086 | 21099 ft | 210 kts | 230° |
| 2026-04-24 12:31 | -34.45157 | 150.58632 | 21091 ft | 228 kts | 231° |
| 2026-04-24 12:31 | -34.46126 | 150.57051 | 20965 ft | 251 kts | 231° |
| 2026-04-24 12:32 | -34.47218 | 150.55263 | 20714 ft | 277 kts | 231° |
| 2026-04-24 12:32 | -34.48412 | 150.53310 | 20567 ft | 297 kts | 231° |
| 2026-04-24 12:32 | -34.49673 | 150.51241 | 20524 ft | 310 kts | 231° |
| 2026-04-24 12:32 | -34.50958 | 150.49129 | 20516 ft | 319 kts | 232° |
| 2026-04-24 12:33 | -34.52307 | 150.46909 | 20507 ft | 328 kts | 232° |
| 2026-04-24 12:33 | -34.53661 | 150.44676 | 20505 ft | 334 kts | 232° |
| 2026-04-24 12:33 | -34.55055 | 150.42377 | 20506 ft | 339 kts | 232° |
| 2026-04-24 12:33 | -34.56462 | 150.40053 | 20502 ft | 344 kts | 232° |
| 2026-04-24 12:34 | -34.57888 | 150.37697 | 20495 ft | 347 kts | 232° |
| 2026-04-24 12:34 | -34.59319 | 150.35329 | 20491 ft | 349 kts | 232° |
| 2026-04-24 12:34 | -34.60752 | 150.32959 | 20496 ft | 351 kts | 232° |
| 2026-04-24 12:34 | -34.62204 | 150.30557 | 20491 ft | 353 kts | 232° |
| 2026-04-24 12:35 | -34.63608 | 150.28139 | 20478 ft | 355 kts | 237° |
| 2026-04-24 12:35 | -34.64425 | 150.25285 | 20516 ft | 355 kts | 259° |
| 2026-04-24 12:35 | -34.64832 | 150.22351 | 20494 ft | 356 kts | 258° |
| 2026-04-24 12:35 | -34.65315 | 150.19386 | 20488 ft | 357 kts | 258° |
| 2026-04-24 12:36 | -34.65776 | 150.16423 | 20491 ft | 357 kts | 258° |
| 2026-04-24 12:36 | -34.66244 | 150.13448 | 20492 ft | 358 kts | 258° |
| 2026-04-24 12:36 | -34.66707 | 150.10494 | 20492 ft | 359 kts | 258° |
| 2026-04-24 12:36 | -34.67173 | 150.07512 | 20497 ft | 359 kts | 258° |
| 2026-04-24 12:37 | -34.67642 | 150.04503 | 20494 ft | 359 kts | 258° |
| 2026-04-24 12:37 | -34.68109 | 150.01504 | 20494 ft | 359 kts | 258° |
| 2026-04-24 12:37 | -34.68576 | 149.98500 | 20498 ft | 359 kts | 258° |
| 2026-04-24 12:37 | -34.69036 | 149.95534 | 20498 ft | 360 kts | 258° |
| 2026-04-24 12:38 | -34.69498 | 149.92541 | 20499 ft | 360 kts | 258° |
| 2026-04-24 12:38 | -34.69958 | 149.89571 | 20496 ft | 360 kts | 258° |
| 2026-04-24 12:38 | -34.70423 | 149.86554 | 20495 ft | 361 kts | 258° |
| 2026-04-24 12:39 | -34.71806 | 149.77573 | 20486 ft | 359 kts | 258° |
| 2026-04-24 12:39 | -34.72271 | 149.74539 | 20489 ft | 359 kts | 258° |
| 2026-04-24 12:39 | -34.72726 | 149.71564 | 20493 ft | 360 kts | 258° |
| 2026-04-24 12:40 | -34.73178 | 149.68607 | 20499 ft | 360 kts | 258° |
| 2026-04-24 12:40 | -34.73639 | 149.65582 | 20501 ft | 360 kts | 258° |
| 2026-04-24 12:40 | -34.74094 | 149.62567 | 20503 ft | 360 kts | 259° |
| 2026-04-24 12:40 | -34.74504 | 149.59592 | 20504 ft | 360 kts | 259° |
| 2026-04-24 12:41 | -34.74910 | 149.56593 | 20501 ft | 361 kts | 259° |
| 2026-04-24 12:41 | -34.75364 | 149.53606 | 20499 ft | 361 kts | 258° |
| 2026-04-24 12:41 | -34.75843 | 149.50595 | 20497 ft | 362 kts | 258° |
| 2026-04-24 12:41 | -34.76311 | 149.47604 | 20497 ft | 362 kts | 258° |
| 2026-04-24 12:42 | -34.76777 | 149.44601 | 20493 ft | 362 kts | 258° |
| 2026-04-24 12:42 | -34.77241 | 149.41585 | 20490 ft | 362 kts | 258° |
| 2026-04-24 12:42 | -34.77696 | 149.38603 | 20485 ft | 362 kts | 258° |
| 2026-04-24 12:42 | -34.78157 | 149.35562 | 20486 ft | 362 kts | 258° |
| 2026-04-24 12:43 | -34.78613 | 149.32547 | 20487 ft | 363 kts | 259° |
| 2026-04-24 12:43 | -34.79061 | 149.29564 | 20486 ft | 363 kts | 259° |
| 2026-04-24 12:43 | -34.79513 | 149.26550 | 20483 ft | 362 kts | 259° |
| 2026-04-24 12:43 | -34.79962 | 149.23541 | 20479 ft | 362 kts | 259° |
| 2026-04-24 12:44 | -34.80411 | 149.20529 | 20484 ft | 362 kts | 259° |
| 2026-04-24 12:44 | -34.80862 | 149.17488 | 20481 ft | 362 kts | 259° |
| 2026-04-24 12:44 | -34.81314 | 149.14441 | 20479 ft | 362 kts | 259° |
| 2026-04-24 12:44 | -34.81759 | 149.11436 | 20484 ft | 362 kts | 259° |
| 2026-04-24 12:45 | -34.82205 | 149.08415 | 20483 ft | 362 kts | 259° |
| 2026-04-24 12:45 | -34.82645 | 149.05420 | 20482 ft | 362 kts | 259° |
| 2026-04-24 12:45 | -34.83110 | 149.02377 | 20483 ft | 362 kts | 258° |
| 2026-04-24 12:45 | -34.83654 | 148.99406 | 20483 ft | 362 kts | 256° |
| 2026-04-24 12:46 | -34.84202 | 148.96426 | 20476 ft | 362 kts | 257° |
| 2026-04-24 12:46 | -34.84736 | 148.93430 | 20483 ft | 362 kts | 257° |
| 2026-04-24 12:46 | -34.85286 | 148.90427 | 20476 ft | 362 kts | 257° |
| 2026-04-24 12:46 | -34.85821 | 148.87448 | 20482 ft | 362 kts | 257° |
| 2026-04-24 12:47 | -34.86359 | 148.84462 | 20477 ft | 362 kts | 257° |
| 2026-04-24 12:47 | -34.86896 | 148.81480 | 20487 ft | 362 kts | 257° |
| 2026-04-24 12:47 | -34.87438 | 148.78471 | 20002 ft | 367 kts | 257° |
| 2026-04-24 12:47 | -34.87976 | 148.75510 | 19533 ft | 350 kts | 257° |
| 2026-04-24 12:48 | -34.88491 | 148.72676 | 19123 ft | 338 kts | 257° |
| 2026-04-24 12:48 | -34.88988 | 148.69920 | 18730 ft | 327 kts | 257° |
| 2026-04-24 12:48 | -34.89465 | 148.67276 | 18362 ft | 318 kts | 257° |
| 2026-04-24 12:48 | -34.89935 | 148.64653 | 18022 ft | 322 kts | 258° |
| 2026-04-24 12:49 | -34.90419 | 148.61926 | 17659 ft | 332 kts | 258° |
| 2026-04-24 12:49 | -34.90918 | 148.59157 | 17276 ft | 336 kts | 257° |
| 2026-04-24 12:49 | -34.91419 | 148.56367 | 16888 ft | 338 kts | 258° |
| 2026-04-24 12:49 | -34.91919 | 148.53564 | 16509 ft | 335 kts | 258° |
| 2026-04-24 12:50 | -34.92413 | 148.50797 | 16125 ft | 333 kts | 258° |
| 2026-04-24 12:50 | -34.92909 | 148.48013 | 15748 ft | 331 kts | 258° |
| 2026-04-24 12:50 | -34.93388 | 148.45317 | 15384 ft | 329 kts | 258° |
| 2026-04-24 12:50 | -34.93874 | 148.42584 | 15004 ft | 328 kts | 258° |
| 2026-04-24 12:51 | -34.94355 | 148.39873 | 14635 ft | 326 kts | 258° |
| 2026-04-24 12:51 | -34.94827 | 148.37203 | 14268 ft | 325 kts | 258° |
| 2026-04-24 12:51 | -34.95301 | 148.34529 | 13899 ft | 323 kts | 258° |
| 2026-04-24 12:51 | -34.95776 | 148.31844 | 13533 ft | 322 kts | 258° |
| 2026-04-24 12:52 | -34.96243 | 148.29196 | 13162 ft | 320 kts | 259° |
| 2026-04-24 12:52 | -34.96709 | 148.26544 | 12810 ft | 319 kts | 258° |
| 2026-04-24 12:52 | -34.97171 | 148.23920 | 12461 ft | 317 kts | 258° |
| 2026-04-24 12:52 | -34.97635 | 148.21278 | 12097 ft | 316 kts | 259° |
| 2026-04-24 12:53 | -34.98100 | 148.18631 | 11738 ft | 314 kts | 259° |
| 2026-04-24 12:53 | -34.98552 | 148.16054 | 11398 ft | 314 kts | 259° |
| 2026-04-24 12:53 | -34.99013 | 148.13437 | 11043 ft | 313 kts | 258° |
| 2026-04-24 12:53 | -34.99468 | 148.10864 | 10460 ft | 314 kts | 258° |
| 2026-04-24 12:54 | -34.99926 | 148.08289 | 9947 ft | 306 kts | 258° |
| 2026-04-24 12:54 | -35.00363 | 148.05778 | 9552 ft | 302 kts | 259° |
| 2026-04-24 12:54 | -35.00794 | 148.03308 | 9204 ft | 296 kts | 259° |
| 2026-04-24 12:54 | -35.01217 | 148.00886 | 8874 ft | 290 kts | 259° |
| 2026-04-24 12:55 | -35.01637 | 147.98480 | 8544 ft | 285 kts | 259° |
| 2026-04-24 12:55 | -35.02048 | 147.96166 | 8230 ft | 280 kts | 258° |
| 2026-04-24 12:55 | -35.02493 | 147.93861 | 7904 ft | 277 kts | 258° |
| 2026-04-24 12:55 | -35.02937 | 147.91585 | 7570 ft | 274 kts | 258° |
| 2026-04-24 12:56 | -35.03375 | 147.89346 | 7240 ft | 271 kts | 258° |
| 2026-04-24 12:56 | -35.03818 | 147.87080 | 6941 ft | 273 kts | 258° |
| 2026-04-24 12:56 | -35.04256 | 147.84840 | 6651 ft | 273 kts | 258° |
| 2026-04-24 12:56 | -35.04705 | 147.82565 | 6320 ft | 276 kts | 258° |
| 2026-04-24 12:57 | -35.05140 | 147.80295 | 5987 ft | 273 kts | 258° |
| 2026-04-24 12:57 | -35.05593 | 147.78056 | 5660 ft | 269 kts | 258° |
| 2026-04-24 12:57 | -35.06040 | 147.75859 | 5281 ft | 260 kts | 258° |
| 2026-04-24 12:57 | -35.06469 | 147.73749 | 4900 ft | 252 kts | 258° |
| 2026-04-24 12:58 | -35.06887 | 147.71707 | 4532 ft | 244 kts | 258° |
| 2026-04-24 12:58 | -35.07291 | 147.69728 | 4170 ft | 236 kts | 258° |
| 2026-04-24 12:58 | -35.07682 | 147.67812 | 3816 ft | 230 kts | 258° |
| 2026-04-24 12:58 | -35.08069 | 147.65956 | 3464 ft | 224 kts | 255° |
| 2026-04-24 12:59 | -35.08649 | 147.64252 | 3173 ft | 209 kts | 242° |
| 2026-04-24 12:59 | -35.09364 | 147.62752 | 3064 ft | 195 kts | 241° |
| 2026-04-24 12:59 | -35.10020 | 147.61290 | 3035 ft | 200 kts | 243° |
| 2026-04-24 12:59 | -35.10686 | 147.59776 | 2961 ft | 204 kts | 242° |
| 2026-04-24 13:00 | -35.11372 | 147.58244 | 2689 ft | 200 kts | 242° |
| 2026-04-24 13:00 | -35.12025 | 147.56790 | 2404 ft | 190 kts | 242° |
| 2026-04-24 13:00 | -35.12625 | 147.55435 | 2145 ft | 173 kts | 242° |
| 2026-04-24 13:00 | -35.13163 | 147.54202 | 1908 ft | 156 kts | 242° |
| 2026-04-24 13:01 | -35.13648 | 147.53076 | 1669 ft | 143 kts | 242° |
| 2026-04-24 13:01 | -35.14103 | 147.51984 | 1532 ft | 147 kts | 242° |
| 2026-04-24 13:01 | -35.14572 | 147.50911 | 1318 ft | 138 kts | 240° |
| 2026-04-24 13:01 | -35.15022 | 147.49884 | 1148 ft | 134 kts | 242° |
| 2026-04-24 13:02 | -35.15459 | 147.48883 | 963 ft | 134 kts | 241° |
| 2026-04-24 13:02 | -35.15897 | 147.47876 | 792 ft | 133 kts | 240° |
| 2026-04-24 13:02 | -35.16303 | 147.46941 | 736 ft | 115 kts | 242° |
| 2026-04-24 13:02 | -35.16606 | 147.46239 | 735 ft | 56 kts | 242° |
| 2026-04-24 13:03 | -35.16709 | 147.46021 | 735 ft | 5 kts | 258° |
| 2026-04-24 13:03 | -35.16684 | 147.46021 | 735 ft | 8 kts | 65° |
| 2026-04-24 13:03 | -35.16633 | 147.46172 | 735 ft | 26 kts | 67° |
| 2026-04-24 13:03 | -35.16535 | 147.46414 | 735 ft | 24 kts | 58° |
| 2026-04-24 13:04 | -35.16452 | 147.46549 | 735 ft | 14 kts | 4° |
| 2026-04-24 13:04 | -35.16345 | 147.46493 | 735 ft | 20 kts | 332° |
| 2026-04-24 13:04 | -35.16217 | 147.46410 | 735 ft | 19 kts | 331° |
| 2026-04-24 13:04 | -35.16108 | 147.46336 | 735 ft | 16 kts | 332° |
| 2026-04-24 13:05 | -35.16008 | 147.46269 | 735 ft | 12 kts | 331° |
| 2026-04-24 13:05 | -35.15956 | 147.46239 | 735 ft | 4 kts | 334° |
| 2026-04-24 13:05 | -35.15955 | 147.46237 | 735 ft | 0 kts | 334° |